sensor_id;sensor_type;location;lat;lon;timestamp;P1;durP1;ratioP1;P2;durP2;ratioP2
52618;SDS011;38513;53.234;6.568;2022-12-10T00:01:49;83.45;;;45.55;;
52618;SDS011;38513;53.234;6.568;2022-12-10T00:04:16;82.43;;;45.88;;
52618;SDS011;38513;53.234;6.568;2022-12-10T00:06:43;78.38;;;45.90;;
52618;SDS011;38513;53.234;6.568;2022-12-10T00:09:10;90.00;;;46.45;;
52618;SDS011;38513;53.234;6.568;2022-12-10T00:11:37;80.20;;;44.20;;
52618;SDS011;38513;53.234;6.568;2022-12-10T00:14:03;83.60;;;45.88;;
52618;SDS011;38513;53.234;6.568;2022-12-10T00:16:31;84.10;;;45.70;;
52618;SDS011;38513;53.234;6.568;2022-12-10T00:18:58;83.47;;;45.60;;
52618;SDS011;38513;53.234;6.568;2022-12-10T00:21:26;83.00;;;45.38;;
52618;SDS011;38513;53.234;6.568;2022-12-10T00:23:52;85.47;;;47.07;;
52618;SDS011;38513;53.234;6.568;2022-12-10T00:26:20;84.95;;;46.28;;
52618;SDS011;38513;53.234;6.568;2022-12-10T00:28:47;82.15;;;46.72;;
52618;SDS011;38513;53.234;6.568;2022-12-10T00:31:14;87.57;;;47.22;;
52618;SDS011;38513;53.234;6.568;2022-12-10T00:33:41;86.13;;;46.47;;
52618;SDS011;38513;53.234;6.568;2022-12-10T00:36:09;93.78;;;47.15;;
52618;SDS011;38513;53.234;6.568;2022-12-10T00:38:35;85.68;;;46.72;;
52618;SDS011;38513;53.234;6.568;2022-12-10T00:41:02;90.38;;;48.55;;
52618;SDS011;38513;53.234;6.568;2022-12-10T00:43:28;91.20;;;49.45;;
52618;SDS011;38513;53.234;6.568;2022-12-10T00:45:55;90.95;;;48.90;;
52618;SDS011;38513;53.234;6.568;2022-12-10T00:48:21;91.80;;;49.63;;
52618;SDS011;38513;53.234;6.568;2022-12-10T00:50:57;94.00;;;51.10;;
52618;SDS011;38513;53.234;6.568;2022-12-10T00:53:24;95.78;;;51.25;;
52618;SDS011;38513;53.234;6.568;2022-12-10T00:55:50;92.85;;;50.03;;
52618;SDS011;38513;53.234;6.568;2022-12-10T00:58:16;91.43;;;50.45;;
52618;SDS011;38513;53.234;6.568;2022-12-10T01:00:43;95.88;;;50.22;;
52618;SDS011;38513;53.234;6.568;2022-12-10T01:03:09;97.05;;;50.97;;
52618;SDS011;38513;53.234;6.568;2022-12-10T01:05:35;98.18;;;51.50;;
52618;SDS011;38513;53.234;6.568;2022-12-10T01:08:01;96.88;;;51.78;;
52618;SDS011;38513;53.234;6.568;2022-12-10T01:10:27;98.45;;;52.45;;
52618;SDS011;38513;53.234;6.568;2022-12-10T01:12:53;97.32;;;52.15;;
52618;SDS011;38513;53.234;6.568;2022-12-10T01:15:19;98.43;;;51.70;;
52618;SDS011;38513;53.234;6.568;2022-12-10T01:17:45;97.07;;;52.22;;
52618;SDS011;38513;53.234;6.568;2022-12-10T01:20:12;101.13;;;52.85;;
52618;SDS011;38513;53.234;6.568;2022-12-10T01:22:38;104.50;;;51.97;;
52618;SDS011;38513;53.234;6.568;2022-12-10T01:25:04;101.70;;;53.63;;
52618;SDS011;38513;53.234;6.568;2022-12-10T01:27:30;104.30;;;53.47;;
52618;SDS011;38513;53.234;6.568;2022-12-10T01:29:56;104.47;;;53.85;;
52618;SDS011;38513;53.234;6.568;2022-12-10T01:32:23;112.57;;;55.13;;
52618;SDS011;38513;53.234;6.568;2022-12-10T01:34:49;105.95;;;53.67;;
52618;SDS011;38513;53.234;6.568;2022-12-10T01:37:15;106.65;;;52.53;;
52618;SDS011;38513;53.234;6.568;2022-12-10T01:39:41;108.35;;;54.10;;
52618;SDS011;38513;53.234;6.568;2022-12-10T01:42:09;114.90;;;55.65;;
52618;SDS011;38513;53.234;6.568;2022-12-10T01:47:08;102.78;;;54.00;;
52618;SDS011;38513;53.234;6.568;2022-12-10T01:49:35;109.38;;;55.05;;
52618;SDS011;38513;53.234;6.568;2022-12-10T01:52:02;110.78;;;54.33;;
52618;SDS011;38513;53.234;6.568;2022-12-10T01:54:33;105.45;;;55.97;;
52618;SDS011;38513;53.234;6.568;2022-12-10T01:57:00;109.55;;;54.67;;
52618;SDS011;38513;53.234;6.568;2022-12-10T01:59:27;110.78;;;56.75;;
52618;SDS011;38513;53.234;6.568;2022-12-10T02:04:26;117.35;;;57.88;;
52618;SDS011;38513;53.234;6.568;2022-12-10T02:06:58;114.95;;;56.85;;
52618;SDS011;38513;53.234;6.568;2022-12-10T02:09:48;117.65;;;57.20;;
52618;SDS011;38513;53.234;6.568;2022-12-10T02:12:28;116.15;;;57.40;;
52618;SDS011;38513;53.234;6.568;2022-12-10T02:15:06;114.85;;;58.20;;
52618;SDS011;38513;53.234;6.568;2022-12-10T02:20:08;118.00;;;57.03;;
52618;SDS011;38513;53.234;6.568;2022-12-10T02:22:42;118.50;;;58.08;;
52618;SDS011;38513;53.234;6.568;2022-12-10T02:25:10;118.68;;;58.42;;
52618;SDS011;38513;53.234;6.568;2022-12-10T02:30:03;122.80;;;58.35;;
52618;SDS011;38513;53.234;6.568;2022-12-10T02:32:31;115.15;;;56.97;;
52618;SDS011;38513;53.234;6.568;2022-12-10T02:35:00;122.15;;;59.05;;
52618;SDS011;38513;53.234;6.568;2022-12-10T02:37:29;117.72;;;58.65;;
52618;SDS011;38513;53.234;6.568;2022-12-10T02:39:56;117.07;;;58.45;;
52618;SDS011;38513;53.234;6.568;2022-12-10T02:42:23;117.85;;;59.13;;
52618;SDS011;38513;53.234;6.568;2022-12-10T02:44:52;117.97;;;59.60;;
52618;SDS011;38513;53.234;6.568;2022-12-10T02:47:19;113.60;;;56.38;;
52618;SDS011;38513;53.234;6.568;2022-12-10T02:49:46;118.13;;;58.47;;
52618;SDS011;38513;53.234;6.568;2022-12-10T02:52:13;116.73;;;58.77;;
52618;SDS011;38513;53.234;6.568;2022-12-10T02:57:15;118.43;;;58.67;;
52618;SDS011;38513;53.234;6.568;2022-12-10T03:02:14;119.43;;;59.97;;
52618;SDS011;38513;53.234;6.568;2022-12-10T03:07:25;122.32;;;58.83;;
52618;SDS011;38513;53.234;6.568;2022-12-10T03:09:55;118.05;;;57.88;;
52618;SDS011;38513;53.234;6.568;2022-12-10T03:12:24;120.78;;;57.28;;
52618;SDS011;38513;53.234;6.568;2022-12-10T03:14:51;118.38;;;58.53;;
52618;SDS011;38513;53.234;6.568;2022-12-10T03:17:19;114.10;;;57.20;;
52618;SDS011;38513;53.234;6.568;2022-12-10T03:19:46;117.38;;;58.22;;
52618;SDS011;38513;53.234;6.568;2022-12-10T03:22:14;116.20;;;57.47;;
52618;SDS011;38513;53.234;6.568;2022-12-10T03:24:45;117.82;;;59.10;;
52618;SDS011;38513;53.234;6.568;2022-12-10T03:27:12;114.53;;;58.63;;
52618;SDS011;38513;53.234;6.568;2022-12-10T03:29:41;120.35;;;58.15;;
52618;SDS011;38513;53.234;6.568;2022-12-10T03:32:09;123.05;;;58.95;;
52618;SDS011;38513;53.234;6.568;2022-12-10T03:34:35;117.50;;;58.75;;
52618;SDS011;38513;53.234;6.568;2022-12-10T03:37:02;119.80;;;59.30;;
52618;SDS011;38513;53.234;6.568;2022-12-10T03:39:29;119.35;;;59.08;;
52618;SDS011;38513;53.234;6.568;2022-12-10T03:41:55;120.47;;;59.17;;
52618;SDS011;38513;53.234;6.568;2022-12-10T03:44:28;123.53;;;58.30;;
52618;SDS011;38513;53.234;6.568;2022-12-10T03:46:55;125.43;;;59.50;;
52618;SDS011;38513;53.234;6.568;2022-12-10T03:49:21;124.47;;;60.85;;
52618;SDS011;38513;53.234;6.568;2022-12-10T03:51:47;124.57;;;60.35;;
52618;SDS011;38513;53.234;6.568;2022-12-10T03:54:13;126.05;;;61.03;;
52618;SDS011;38513;53.234;6.568;2022-12-10T03:56:39;116.78;;;58.38;;
52618;SDS011;38513;53.234;6.568;2022-12-10T03:59:05;123.65;;;59.88;;
52618;SDS011;38513;53.234;6.568;2022-12-10T04:01:31;125.75;;;60.55;;
52618;SDS011;38513;53.234;6.568;2022-12-10T04:03:57;126.82;;;60.38;;
52618;SDS011;38513;53.234;6.568;2022-12-10T04:06:23;124.47;;;60.25;;
52618;SDS011;38513;53.234;6.568;2022-12-10T04:08:49;127.40;;;61.72;;
52618;SDS011;38513;53.234;6.568;2022-12-10T04:11:18;125.82;;;59.97;;
52618;SDS011;38513;53.234;6.568;2022-12-10T04:13:44;123.80;;;59.83;;
52618;SDS011;38513;53.234;6.568;2022-12-10T04:16:29;126.10;;;62.25;;
52618;SDS011;38513;53.234;6.568;2022-12-10T04:18:58;126.63;;;59.50;;
52618;SDS011;38513;53.234;6.568;2022-12-10T04:21:24;126.00;;;60.88;;
52618;SDS011;38513;53.234;6.568;2022-12-10T04:24:10;131.43;;;62.20;;
52618;SDS011;38513;53.234;6.568;2022-12-10T04:26:55;125.22;;;59.75;;
52618;SDS011;38513;53.234;6.568;2022-12-10T04:29:28;132.55;;;62.05;;
52618;SDS011;38513;53.234;6.568;2022-12-10T04:31:55;126.70;;;60.67;;
52618;SDS011;38513;53.234;6.568;2022-12-10T04:34:22;132.77;;;64.13;;
52618;SDS011;38513;53.234;6.568;2022-12-10T04:36:48;126.87;;;61.00;;
52618;SDS011;38513;53.234;6.568;2022-12-10T04:39:14;129.18;;;61.05;;
52618;SDS011;38513;53.234;6.568;2022-12-10T04:41:41;136.43;;;63.22;;
52618;SDS011;38513;53.234;6.568;2022-12-10T04:44:07;135.70;;;61.97;;
52618;SDS011;38513;53.234;6.568;2022-12-10T04:46:34;126.82;;;61.88;;
52618;SDS011;38513;53.234;6.568;2022-12-10T04:49:00;136.35;;;62.60;;
52618;SDS011;38513;53.234;6.568;2022-12-10T04:51:27;140.35;;;63.80;;
52618;SDS011;38513;53.234;6.568;2022-12-10T04:53:53;138.35;;;63.33;;
52618;SDS011;38513;53.234;6.568;2022-12-10T04:56:19;135.63;;;64.25;;
52618;SDS011;38513;53.234;6.568;2022-12-10T04:58:45;144.27;;;64.47;;
52618;SDS011;38513;53.234;6.568;2022-12-10T05:01:11;142.20;;;65.97;;
52618;SDS011;38513;53.234;6.568;2022-12-10T05:03:37;137.15;;;64.13;;
52618;SDS011;38513;53.234;6.568;2022-12-10T05:06:04;137.10;;;63.80;;
52618;SDS011;38513;53.234;6.568;2022-12-10T05:08:30;137.13;;;63.10;;
52618;SDS011;38513;53.234;6.568;2022-12-10T05:11:03;146.38;;;65.40;;
52618;SDS011;38513;53.234;6.568;2022-12-10T05:13:30;157.55;;;66.45;;
52618;SDS011;38513;53.234;6.568;2022-12-10T05:15:56;159.00;;;69.13;;
52618;SDS011;38513;53.234;6.568;2022-12-10T05:18:22;151.37;;;65.70;;
52618;SDS011;38513;53.234;6.568;2022-12-10T05:20:48;158.23;;;66.30;;
52618;SDS011;38513;53.234;6.568;2022-12-10T05:23:15;164.50;;;69.45;;
52618;SDS011;38513;53.234;6.568;2022-12-10T05:26:00;166.15;;;67.90;;
52618;SDS011;38513;53.234;6.568;2022-12-10T05:28:26;165.48;;;68.95;;
52618;SDS011;38513;53.234;6.568;2022-12-10T05:30:52;169.93;;;70.15;;
52618;SDS011;38513;53.234;6.568;2022-12-10T05:33:18;169.30;;;69.50;;
52618;SDS011;38513;53.234;6.568;2022-12-10T05:35:55;170.63;;;70.57;;
52618;SDS011;38513;53.234;6.568;2022-12-10T05:38:21;174.98;;;68.32;;
52618;SDS011;38513;53.234;6.568;2022-12-10T05:40:47;185.93;;;69.85;;
52618;SDS011;38513;53.234;6.568;2022-12-10T05:43:13;187.02;;;70.50;;
52618;SDS011;38513;53.234;6.568;2022-12-10T05:45:39;199.20;;;74.13;;
52618;SDS011;38513;53.234;6.568;2022-12-10T05:48:06;196.18;;;69.95;;
52618;SDS011;38513;53.234;6.568;2022-12-10T05:50:32;208.52;;;75.38;;
52618;SDS011;38513;53.234;6.568;2022-12-10T05:52:58;212.15;;;75.50;;
52618;SDS011;38513;53.234;6.568;2022-12-10T05:55:24;219.53;;;75.87;;
52618;SDS011;38513;53.234;6.568;2022-12-10T05:57:52;213.75;;;76.93;;
52618;SDS011;38513;53.234;6.568;2022-12-10T06:00:18;239.43;;;78.75;;
52618;SDS011;38513;53.234;6.568;2022-12-10T06:02:45;256.42;;;79.55;;
52618;SDS011;38513;53.234;6.568;2022-12-10T06:05:11;307.17;;;81.00;;
52618;SDS011;38513;53.234;6.568;2022-12-10T06:07:37;280.03;;;81.13;;
52618;SDS011;38513;53.234;6.568;2022-12-10T06:10:04;338.13;;;86.85;;
52618;SDS011;38513;53.234;6.568;2022-12-10T06:12:30;305.15;;;80.80;;
52618;SDS011;38513;53.234;6.568;2022-12-10T06:14:56;312.65;;;83.95;;
52618;SDS011;38513;53.234;6.568;2022-12-10T06:17:22;294.60;;;82.35;;
52618;SDS011;38513;53.234;6.568;2022-12-10T06:19:48;318.05;;;84.10;;
52618;SDS011;38513;53.234;6.568;2022-12-10T06:22:14;338.47;;;84.87;;
52618;SDS011;38513;53.234;6.568;2022-12-10T06:24:40;319.77;;;87.07;;
52618;SDS011;38513;53.234;6.568;2022-12-10T06:27:06;277.25;;;83.28;;
52618;SDS011;38513;53.234;6.568;2022-12-10T06:29:32;386.40;;;86.90;;
52618;SDS011;38513;53.234;6.568;2022-12-10T06:31:58;489.65;;;92.68;;
52618;SDS011;38513;53.234;6.568;2022-12-10T06:34:25;307.13;;;83.35;;
52618;SDS011;38513;53.234;6.568;2022-12-10T06:36:51;532.57;;;97.57;;
52618;SDS011;38513;53.234;6.568;2022-12-10T06:39:17;475.42;;;89.50;;
52618;SDS011;38513;53.234;6.568;2022-12-10T06:41:43;510.00;;;94.38;;
52618;SDS011;38513;53.234;6.568;2022-12-10T06:44:11;424.30;;;90.10;;
52618;SDS011;38513;53.234;6.568;2022-12-10T06:46:37;419.38;;;90.85;;
52618;SDS011;38513;53.234;6.568;2022-12-10T06:49:04;388.75;;;90.10;;
52618;SDS011;38513;53.234;6.568;2022-12-10T06:51:31;348.13;;;88.15;;
52618;SDS011;38513;53.234;6.568;2022-12-10T06:53:57;459.40;;;96.70;;
52618;SDS011;38513;53.234;6.568;2022-12-10T06:56:23;383.93;;;91.27;;
52618;SDS011;38513;53.234;6.568;2022-12-10T06:58:49;374.80;;;91.27;;
52618;SDS011;38513;53.234;6.568;2022-12-10T07:01:19;392.63;;;85.65;;
52618;SDS011;38513;53.234;6.568;2022-12-10T07:03:49;355.20;;;85.37;;
52618;SDS011;38513;53.234;6.568;2022-12-10T07:06:15;457.95;;;92.03;;
52618;SDS011;38513;53.234;6.568;2022-12-10T07:08:41;394.42;;;83.72;;
52618;SDS011;38513;53.234;6.568;2022-12-10T07:11:08;492.83;;;87.95;;
52618;SDS011;38513;53.234;6.568;2022-12-10T07:13:35;352.58;;;78.63;;
52618;SDS011;38513;53.234;6.568;2022-12-10T07:16:01;307.70;;;80.78;;
52618;SDS011;38513;53.234;6.568;2022-12-10T07:18:28;431.70;;;91.43;;
52618;SDS011;38513;53.234;6.568;2022-12-10T07:20:54;520.20;;;97.05;;
52618;SDS011;38513;53.234;6.568;2022-12-10T07:23:20;389.05;;;90.80;;
52618;SDS011;38513;53.234;6.568;2022-12-10T07:25:46;486.70;;;94.25;;
52618;SDS011;38513;53.234;6.568;2022-12-10T07:28:12;517.67;;;98.70;;
52618;SDS011;38513;53.234;6.568;2022-12-10T07:30:38;487.33;;;92.13;;
52618;SDS011;38513;53.234;6.568;2022-12-10T07:33:05;498.30;;;90.87;;
52618;SDS011;38513;53.234;6.568;2022-12-10T07:35:31;385.88;;;88.03;;
52618;SDS011;38513;53.234;6.568;2022-12-10T07:37:57;419.08;;;82.03;;
52618;SDS011;38513;53.234;6.568;2022-12-10T07:40:23;315.98;;;77.82;;
52618;SDS011;38513;53.234;6.568;2022-12-10T07:42:49;298.27;;;76.90;;
52618;SDS011;38513;53.234;6.568;2022-12-10T07:45:15;344.25;;;80.10;;
52618;SDS011;38513;53.234;6.568;2022-12-10T07:47:42;282.27;;;77.75;;
52618;SDS011;38513;53.234;6.568;2022-12-10T07:50:08;368.92;;;81.60;;
52618;SDS011;38513;53.234;6.568;2022-12-10T07:52:34;300.83;;;75.95;;
52618;SDS011;38513;53.234;6.568;2022-12-10T07:55:00;323.92;;;78.22;;
52618;SDS011;38513;53.234;6.568;2022-12-10T07:57:28;321.52;;;83.82;;
52618;SDS011;38513;53.234;6.568;2022-12-10T07:59:54;303.42;;;79.60;;
52618;SDS011;38513;53.234;6.568;2022-12-10T08:02:20;359.73;;;84.10;;
52618;SDS011;38513;53.234;6.568;2022-12-10T08:04:47;243.27;;;76.53;;
52618;SDS011;38513;53.234;6.568;2022-12-10T08:07:13;356.08;;;81.85;;
52618;SDS011;38513;53.234;6.568;2022-12-10T08:09:39;329.85;;;83.03;;
52618;SDS011;38513;53.234;6.568;2022-12-10T08:12:05;319.67;;;79.32;;
52618;SDS011;38513;53.234;6.568;2022-12-10T08:14:31;336.67;;;82.70;;
52618;SDS011;38513;53.234;6.568;2022-12-10T08:16:57;285.42;;;77.35;;
52618;SDS011;38513;53.234;6.568;2022-12-10T08:19:23;299.35;;;80.05;;
52618;SDS011;38513;53.234;6.568;2022-12-10T08:21:50;348.73;;;80.10;;
52618;SDS011;38513;53.234;6.568;2022-12-10T08:24:21;374.88;;;78.32;;
52618;SDS011;38513;53.234;6.568;2022-12-10T08:26:47;357.35;;;74.13;;
52618;SDS011;38513;53.234;6.568;2022-12-10T08:29:13;304.85;;;72.35;;
52618;SDS011;38513;53.234;6.568;2022-12-10T08:31:39;321.40;;;74.13;;
52618;SDS011;38513;53.234;6.568;2022-12-10T08:34:16;265.73;;;70.38;;
52618;SDS011;38513;53.234;6.568;2022-12-10T08:36:49;259.95;;;68.82;;
52618;SDS011;38513;53.234;6.568;2022-12-10T08:39:15;204.07;;;64.60;;
52618;SDS011;38513;53.234;6.568;2022-12-10T08:41:42;244.13;;;67.85;;
52618;SDS011;38513;53.234;6.568;2022-12-10T08:44:09;254.75;;;69.93;;
52618;SDS011;38513;53.234;6.568;2022-12-10T08:46:36;253.33;;;69.37;;
52618;SDS011;38513;53.234;6.568;2022-12-10T08:49:04;382.50;;;71.47;;
52618;SDS011;38513;53.234;6.568;2022-12-10T08:51:34;335.03;;;69.63;;
52618;SDS011;38513;53.234;6.568;2022-12-10T08:54:00;308.33;;;66.13;;
52618;SDS011;38513;53.234;6.568;2022-12-10T08:56:26;342.95;;;69.15;;
52618;SDS011;38513;53.234;6.568;2022-12-10T08:58:55;314.20;;;70.65;;
52618;SDS011;38513;53.234;6.568;2022-12-10T09:01:21;360.57;;;75.47;;
52618;SDS011;38513;53.234;6.568;2022-12-10T09:03:47;293.87;;;73.37;;
52618;SDS011;38513;53.234;6.568;2022-12-10T09:06:18;246.07;;;66.00;;
52618;SDS011;38513;53.234;6.568;2022-12-10T09:08:45;267.33;;;69.03;;
52618;SDS011;38513;53.234;6.568;2022-12-10T09:11:16;276.80;;;69.60;;
52618;SDS011;38513;53.234;6.568;2022-12-10T09:13:45;343.42;;;70.82;;
52618;SDS011;38513;53.234;6.568;2022-12-10T09:16:11;247.50;;;68.35;;
52618;SDS011;38513;53.234;6.568;2022-12-10T09:18:38;280.10;;;68.07;;
52618;SDS011;38513;53.234;6.568;2022-12-10T09:21:11;268.58;;;69.63;;
52618;SDS011;38513;53.234;6.568;2022-12-10T09:23:38;263.90;;;71.40;;
52618;SDS011;38513;53.234;6.568;2022-12-10T09:26:05;240.50;;;65.70;;
52618;SDS011;38513;53.234;6.568;2022-12-10T09:28:35;225.60;;;64.60;;
52618;SDS011;38513;53.234;6.568;2022-12-10T09:31:01;193.80;;;60.75;;
52618;SDS011;38513;53.234;6.568;2022-12-10T09:33:28;188.40;;;58.47;;
52618;SDS011;38513;53.234;6.568;2022-12-10T09:35:54;197.23;;;55.78;;
52618;SDS011;38513;53.234;6.568;2022-12-10T09:38:26;180.70;;;55.47;;
52618;SDS011;38513;53.234;6.568;2022-12-10T09:41:02;191.23;;;55.78;;
52618;SDS011;38513;53.234;6.568;2022-12-10T09:48:32;146.73;;;54.30;;
52618;SDS011;38513;53.234;6.568;2022-12-10T09:51:13;156.73;;;54.85;;
52618;SDS011;38513;53.234;6.568;2022-12-10T09:53:40;157.98;;;52.42;;
52618;SDS011;38513;53.234;6.568;2022-12-10T09:56:11;150.45;;;53.92;;
52618;SDS011;38513;53.234;6.568;2022-12-10T09:58:40;153.13;;;54.28;;
52618;SDS011;38513;53.234;6.568;2022-12-10T10:01:09;154.63;;;54.40;;
52618;SDS011;38513;53.234;6.568;2022-12-10T10:03:38;150.25;;;54.33;;
52618;SDS011;38513;53.234;6.568;2022-12-10T10:06:10;161.27;;;54.30;;
52618;SDS011;38513;53.234;6.568;2022-12-10T10:08:45;152.40;;;55.13;;
52618;SDS011;38513;53.234;6.568;2022-12-10T10:11:19;165.10;;;57.50;;
52618;SDS011;38513;53.234;6.568;2022-12-10T10:13:53;157.68;;;55.38;;
52618;SDS011;38513;53.234;6.568;2022-12-10T10:16:23;175.05;;;56.20;;
52618;SDS011;38513;53.234;6.568;2022-12-10T10:19:01;169.82;;;55.75;;
52618;SDS011;38513;53.234;6.568;2022-12-10T10:23:54;121.43;;;50.00;;
52618;SDS011;38513;53.234;6.568;2022-12-10T10:26:20;123.03;;;51.47;;
52618;SDS011;38513;53.234;6.568;2022-12-10T10:28:50;108.45;;;46.60;;
52618;SDS011;38513;53.234;6.568;2022-12-10T10:31:20;107.87;;;47.53;;
52618;SDS011;38513;53.234;6.568;2022-12-10T10:33:51;110.25;;;46.72;;
52618;SDS011;38513;53.234;6.568;2022-12-10T10:36:28;90.57;;;42.97;;
52618;SDS011;38513;53.234;6.568;2022-12-10T10:38:55;88.75;;;41.92;;
52618;SDS011;38513;53.234;6.568;2022-12-10T10:41:23;94.30;;;44.00;;
52618;SDS011;38513;53.234;6.568;2022-12-10T10:43:51;90.35;;;43.03;;
52618;SDS011;38513;53.234;6.568;2022-12-10T10:46:23;88.20;;;40.63;;
52618;SDS011;38513;53.234;6.568;2022-12-10T10:48:50;74.47;;;37.47;;
52618;SDS011;38513;53.234;6.568;2022-12-10T10:53:50;74.22;;;38.65;;
52618;SDS011;38513;53.234;6.568;2022-12-10T10:59:03;80.40;;;40.60;;
52618;SDS011;38513;53.234;6.568;2022-12-10T11:01:43;81.28;;;40.17;;
52618;SDS011;38513;53.234;6.568;2022-12-10T11:04:10;87.20;;;43.63;;
52618;SDS011;38513;53.234;6.568;2022-12-10T11:06:36;88.05;;;42.72;;
52618;SDS011;38513;53.234;6.568;2022-12-10T11:09:02;86.40;;;42.58;;
52618;SDS011;38513;53.234;6.568;2022-12-10T11:11:36;82.53;;;39.60;;
52618;SDS011;38513;53.234;6.568;2022-12-10T11:19:44;84.97;;;41.55;;
52618;SDS011;38513;53.234;6.568;2022-12-10T11:22:23;87.77;;;42.80;;
52618;SDS011;38513;53.234;6.568;2022-12-10T11:24:49;83.00;;;41.75;;
52618;SDS011;38513;53.234;6.568;2022-12-10T11:30:05;81.82;;;41.65;;
52618;SDS011;38513;53.234;6.568;2022-12-10T11:40:06;79.88;;;40.45;;
52618;SDS011;38513;53.234;6.568;2022-12-10T11:50:47;91.88;;;44.85;;
52618;SDS011;38513;53.234;6.568;2022-12-10T11:53:28;92.20;;;43.67;;
52618;SDS011;38513;53.234;6.568;2022-12-10T12:01:12;101.63;;;45.17;;
52618;SDS011;38513;53.234;6.568;2022-12-10T12:03:46;104.78;;;46.47;;
52618;SDS011;38513;53.234;6.568;2022-12-10T12:11:31;110.80;;;47.45;;
52618;SDS011;38513;53.234;6.568;2022-12-10T12:16:28;127.35;;;48.55;;
52618;SDS011;38513;53.234;6.568;2022-12-10T12:21:21;134.88;;;50.47;;
52618;SDS011;38513;53.234;6.568;2022-12-10T12:28:51;126.95;;;50.15;;
52618;SDS011;38513;53.234;6.568;2022-12-10T12:31:20;135.27;;;51.88;;
52618;SDS011;38513;53.234;6.568;2022-12-10T12:33:50;128.80;;;51.07;;
52618;SDS011;38513;53.234;6.568;2022-12-10T12:36:18;134.27;;;51.22;;
52618;SDS011;38513;53.234;6.568;2022-12-10T12:38:51;138.35;;;49.83;;
52618;SDS011;38513;53.234;6.568;2022-12-10T12:41:26;129.60;;;51.33;;
52618;SDS011;38513;53.234;6.568;2022-12-10T12:43:58;118.05;;;49.65;;
52618;SDS011;38513;53.234;6.568;2022-12-10T12:46:29;125.88;;;50.92;;
52618;SDS011;38513;53.234;6.568;2022-12-10T12:49:02;141.18;;;52.85;;
52618;SDS011;38513;53.234;6.568;2022-12-10T12:53:57;130.50;;;49.75;;
52618;SDS011;38513;53.234;6.568;2022-12-10T12:56:45;130.53;;;48.80;;
52618;SDS011;38513;53.234;6.568;2022-12-10T13:04:14;137.25;;;48.33;;
52618;SDS011;38513;53.234;6.568;2022-12-10T13:06:40;128.77;;;47.80;;
52618;SDS011;38513;53.234;6.568;2022-12-10T13:11:40;143.68;;;50.35;;
52618;SDS011;38513;53.234;6.568;2022-12-10T13:24:46;167.45;;;52.28;;
52618;SDS011;38513;53.234;6.568;2022-12-10T13:27:29;166.65;;;53.22;;
52618;SDS011;38513;53.234;6.568;2022-12-10T13:29:58;198.57;;;50.75;;
52618;SDS011;38513;53.234;6.568;2022-12-10T13:42:38;186.27;;;54.35;;
52618;SDS011;38513;53.234;6.568;2022-12-10T13:47:50;169.10;;;53.30;;
52618;SDS011;38513;53.234;6.568;2022-12-10T13:53:45;175.43;;;54.07;;
52618;SDS011;38513;53.234;6.568;2022-12-10T13:55:59;186.20;;;53.63;;
52618;SDS011;38513;53.234;6.568;2022-12-10T14:06:16;181.90;;;53.97;;
52618;SDS011;38513;53.234;6.568;2022-12-10T14:08:53;176.20;;;53.75;;
52618;SDS011;38513;53.234;6.568;2022-12-10T14:11:21;176.32;;;55.28;;
52618;SDS011;38513;53.234;6.568;2022-12-10T14:13:52;185.07;;;54.55;;
52618;SDS011;38513;53.234;6.568;2022-12-10T14:16:21;166.82;;;53.58;;
52618;SDS011;38513;53.234;6.568;2022-12-10T14:18:53;180.70;;;55.50;;
52618;SDS011;38513;53.234;6.568;2022-12-10T14:21:20;173.23;;;53.27;;
52618;SDS011;38513;53.234;6.568;2022-12-10T14:23:47;187.40;;;55.80;;
52618;SDS011;38513;53.234;6.568;2022-12-10T14:26:15;222.88;;;59.90;;
52618;SDS011;38513;53.234;6.568;2022-12-10T14:28:43;223.77;;;57.50;;
52618;SDS011;38513;53.234;6.568;2022-12-10T14:31:17;204.68;;;58.90;;
52618;SDS011;38513;53.234;6.568;2022-12-10T14:33:47;216.00;;;56.58;;
52618;SDS011;38513;53.234;6.568;2022-12-10T14:36:24;188.68;;;55.92;;
52618;SDS011;38513;53.234;6.568;2022-12-10T14:38:51;239.43;;;61.15;;
52618;SDS011;38513;53.234;6.568;2022-12-10T14:41:19;208.32;;;59.80;;
52618;SDS011;38513;53.234;6.568;2022-12-10T14:43:49;228.13;;;61.42;;
52618;SDS011;38513;53.234;6.568;2022-12-10T14:46:18;190.25;;;57.45;;
52618;SDS011;38513;53.234;6.568;2022-12-10T14:48:48;202.57;;;56.92;;
52618;SDS011;38513;53.234;6.568;2022-12-10T14:51:18;164.82;;;52.33;;
52618;SDS011;38513;53.234;6.568;2022-12-10T14:53:45;169.13;;;53.30;;
52618;SDS011;38513;53.234;6.568;2022-12-10T14:56:14;114.63;;;43.92;;
52618;SDS011;38513;53.234;6.568;2022-12-10T14:58:46;115.32;;;44.00;;
52618;SDS011;38513;53.234;6.568;2022-12-10T15:01:19;135.73;;;48.03;;
52618;SDS011;38513;53.234;6.568;2022-12-10T15:03:47;192.93;;;64.47;;
52618;SDS011;38513;53.234;6.568;2022-12-10T15:06:14;287.73;;;100.10;;
52618;SDS011;38513;53.234;6.568;2022-12-10T15:08:44;356.23;;;132.70;;
52618;SDS011;38513;53.234;6.568;2022-12-10T15:11:12;182.25;;;58.35;;
52618;SDS011;38513;53.234;6.568;2022-12-10T15:13:59;170.20;;;54.15;;
52618;SDS011;38513;53.234;6.568;2022-12-10T15:16:40;176.82;;;55.13;;
52618;SDS011;38513;53.234;6.568;2022-12-10T15:19:07;189.77;;;58.03;;
52618;SDS011;38513;53.234;6.568;2022-12-10T15:21:33;179.45;;;55.92;;
52618;SDS011;38513;53.234;6.568;2022-12-10T15:24:13;174.07;;;55.05;;
52618;SDS011;38513;53.234;6.568;2022-12-10T15:26:44;170.13;;;50.92;;
52618;SDS011;38513;53.234;6.568;2022-12-10T15:32:03;142.30;;;45.67;;
52618;SDS011;38513;53.234;6.568;2022-12-10T15:34:29;148.18;;;46.28;;
52618;SDS011;38513;53.234;6.568;2022-12-10T15:37:02;133.48;;;42.00;;
52618;SDS011;38513;53.234;6.568;2022-12-10T15:39:32;123.32;;;41.35;;
52618;SDS011;38513;53.234;6.568;2022-12-10T15:42:07;128.18;;;41.58;;
52618;SDS011;38513;53.234;6.568;2022-12-10T15:44:38;135.52;;;43.00;;
52618;SDS011;38513;53.234;6.568;2022-12-10T15:49:40;129.73;;;43.03;;
52618;SDS011;38513;53.234;6.568;2022-12-10T15:52:13;133.88;;;44.92;;
52618;SDS011;38513;53.234;6.568;2022-12-10T15:54:40;133.38;;;43.70;;
52618;SDS011;38513;53.234;6.568;2022-12-10T15:59:56;141.23;;;43.00;;
52618;SDS011;38513;53.234;6.568;2022-12-10T16:04:57;144.80;;;45.17;;
52618;SDS011;38513;53.234;6.568;2022-12-10T16:07:29;155.55;;;46.58;;
52618;SDS011;38513;53.234;6.568;2022-12-10T16:10:01;154.13;;;45.35;;
52618;SDS011;38513;53.234;6.568;2022-12-10T16:12:27;169.85;;;49.35;;
52618;SDS011;38513;53.234;6.568;2022-12-10T16:14:54;201.75;;;52.97;;
52618;SDS011;38513;53.234;6.568;2022-12-10T16:17:25;175.55;;;53.58;;
52618;SDS011;38513;53.234;6.568;2022-12-10T16:19:58;200.88;;;54.83;;
52618;SDS011;38513;53.234;6.568;2022-12-10T16:22:33;214.48;;;55.85;;
52618;SDS011;38513;53.234;6.568;2022-12-10T16:24:59;217.20;;;55.95;;
52618;SDS011;38513;53.234;6.568;2022-12-10T16:27:26;217.90;;;54.78;;
52618;SDS011;38513;53.234;6.568;2022-12-10T16:29:52;223.63;;;56.45;;